createdAt,value
2022-08-04T00:03:06.780Z,2.00
2022-08-04T00:06:00.998Z,2.00
2022-08-04T00:08:53.120Z,2.70
2022-08-04T00:11:47.275Z,2.20
2022-08-04T00:14:36.599Z,2.20
2022-08-04T00:17:30.136Z,2.10
2022-08-04T00:20:20.924Z,2.00
2022-08-04T00:23:09.527Z,2.20
2022-08-04T00:25:58.017Z,2.10
2022-08-04T00:28:46.514Z,2.10
2022-08-04T00:31:56.713Z,2.10
2022-08-04T00:34:43.460Z,2.20
2022-08-04T00:37:33.277Z,2.00
2022-08-04T00:40:29.924Z,2.13
2022-08-04T00:43:24.307Z,2.23
2022-08-04T00:46:40.385Z,2.17
2022-08-04T00:50:09.239Z,2.27
2022-08-04T00:53:10.838Z,2.20
2022-08-04T00:56:25.787Z,2.10
2022-08-04T00:59:22.612Z,2.30
2022-08-04T01:02:17.515Z,2.40
2022-08-04T01:05:07.859Z,1.90
2022-08-04T01:08:13.312Z,2.10
2022-08-04T01:11:08.393Z,2.10
2022-08-04T01:14:07.037Z,2.10
2022-08-04T01:17:01.196Z,2.10
2022-08-04T01:20:06.480Z,2.10
2022-08-04T01:23:40.484Z,2.03
2022-08-04T01:26:57.723Z,2.17
2022-08-04T01:29:51.069Z,1.90
2022-08-04T01:32:49.615Z,2.20
2022-08-04T01:35:46.510Z,2.00
2022-08-04T01:38:37.681Z,2.03
2022-08-04T01:41:32.910Z,2.10
2022-08-04T01:44:21.580Z,2.00
2022-08-04T01:47:11.594Z,2.20
2022-08-04T01:50:06.335Z,2.00
2022-08-04T01:52:56.193Z,2.07
2022-08-04T01:55:55.136Z,2.30
2022-08-04T01:58:44.092Z,2.00
2022-08-04T02:01:37.122Z,2.33
2022-08-04T02:04:27.029Z,2.30
2022-08-04T02:07:27.453Z,2.13
2022-08-04T02:10:22.869Z,1.90
2022-08-04T02:13:16.918Z,2.13
2022-08-04T02:16:09.315Z,2.10
2022-08-04T02:19:03.134Z,2.43
2022-08-04T02:21:58.543Z,2.27
2022-08-04T02:24:51.387Z,2.37
2022-08-04T02:28:12.686Z,2.10
2022-08-04T02:31:24.340Z,2.30
2022-08-04T02:34:22.545Z,2.00
2022-08-04T02:37:12.497Z,2.23
2022-08-04T02:40:02.717Z,2.20
2022-08-04T02:42:51.227Z,2.10
2022-08-04T02:45:39.859Z,2.13
2022-08-04T02:48:31.216Z,2.30
2022-08-04T02:51:24.198Z,2.20
2022-08-04T02:54:14.657Z,2.20
2022-08-04T02:57:04.403Z,1.83
2022-08-04T03:00:07.859Z,2.00
2022-08-04T03:03:13.809Z,2.10
2022-08-04T03:06:50.653Z,2.00
2022-08-04T03:10:13.364Z,2.10
2022-08-04T03:13:31.273Z,1.90
2022-08-04T03:17:01.644Z,1.80
2022-08-04T03:20:33.895Z,2.00
2022-08-04T03:24:01.167Z,1.70
2022-08-04T03:27:12.498Z,1.70
2022-08-04T03:30:09.246Z,1.70
2022-08-04T03:33:37.679Z,1.80
2022-08-04T03:36:53.788Z,1.60
2022-08-04T03:40:26.822Z,2.10
2022-08-04T03:44:00.001Z,1.90
2022-08-04T03:47:18.487Z,1.80
2022-08-04T03:50:43.397Z,2.17
2022-08-04T03:53:43.822Z,2.47
2022-08-04T03:57:31.556Z,2.10
2022-08-04T04:00:21.571Z,2.27
2022-08-04T04:03:42.085Z,2.50
2022-08-04T04:07:07.272Z,2.00
2022-08-04T04:10:14.043Z,1.87
2022-08-04T04:13:15.422Z,1.93
2022-08-04T04:16:21.378Z,1.93
2022-08-04T04:19:26.123Z,1.87
2022-08-04T04:22:56.885Z,1.80
2022-08-04T04:25:56.179Z,1.73
2022-08-04T04:28:58.565Z,1.90
2022-08-04T04:32:00.777Z,1.80
2022-08-04T04:34:59.081Z,1.80
2022-08-04T04:38:12.137Z,1.80
2022-08-04T04:41:26.668Z,1.70
2022-08-04T04:44:49.537Z,2.00
2022-08-04T04:48:08.850Z,1.80
2022-08-04T04:51:07.138Z,1.70
2022-08-04T04:54:00.477Z,1.70
2022-08-04T04:56:52.582Z,1.70
2022-08-04T04:59:46.237Z,1.73
2022-08-04T05:03:28.321Z,1.60
2022-08-04T05:06:30.934Z,1.70
2022-08-04T05:09:43.702Z,1.60
2022-08-04T05:14:38.229Z,1.60
2022-08-04T05:16:08.367Z,1.63
2022-08-04T05:19:04.922Z,1.60
2022-08-04T05:22:03.506Z,1.80
2022-08-04T05:24:56.483Z,1.93
2022-08-04T05:27:47.718Z,1.80
2022-08-04T05:30:47.047Z,1.70
2022-08-04T05:33:40.775Z,1.77
2022-08-04T05:36:41.249Z,1.67
2022-08-04T05:39:38.167Z,1.80
2022-08-04T05:42:27.238Z,1.47
2022-08-04T05:45:15.755Z,1.70
2022-08-04T05:48:04.966Z,1.90
2022-08-04T05:50:56.473Z,1.50
2022-08-04T05:53:49.069Z,1.60
2022-08-04T05:56:37.812Z,1.60
2022-08-04T05:59:26.509Z,1.50
2022-08-04T06:02:16.828Z,1.60
2022-08-04T06:05:07.704Z,1.70
2022-08-04T06:08:12.225Z,1.60
2022-08-04T06:11:06.605Z,1.57
2022-08-04T06:13:57.931Z,1.77
2022-08-04T06:16:51.183Z,1.53
2022-08-04T06:19:59.746Z,1.60
2022-08-04T06:22:53.562Z,1.67
2022-08-04T06:25:45.766Z,1.63
2022-08-04T06:28:35.648Z,1.70
2022-08-04T06:32:26.932Z,1.50
2022-08-04T06:34:53.823Z,2.20
2022-08-04T06:37:44.401Z,2.30
2022-08-04T06:40:34.436Z,2.20
2022-08-04T06:43:23.342Z,3.00
2022-08-04T06:46:14.923Z,2.50
2022-08-04T06:49:04.729Z,3.00
2022-08-04T06:51:53.205Z,2.93
2022-08-04T06:54:41.658Z,3.20
2022-08-04T06:57:31.643Z,2.90
2022-08-04T07:00:20.214Z,3.30
2022-08-04T07:03:10.031Z,3.10
2022-08-04T07:05:58.528Z,3.50
2022-08-04T07:08:54.407Z,3.13
2022-08-04T07:11:44.538Z,3.27
2022-08-04T07:14:36.010Z,3.33
2022-08-04T07:17:24.497Z,3.13
2022-08-04T07:20:34.593Z,3.60
2022-08-04T07:23:25.872Z,2.83
2022-08-04T07:26:15.713Z,3.03
2022-08-04T07:29:04.242Z,3.20
2022-08-04T07:31:52.866Z,3.20
2022-08-04T07:34:41.601Z,3.10
2022-08-04T07:37:39.177Z,3.00
2022-08-04T07:40:28.706Z,3.33
2022-08-04T07:43:17.391Z,2.70
2022-08-04T07:46:06.015Z,3.13
2022-08-04T07:48:55.548Z,3.20
2022-08-04T07:51:44.084Z,3.10
2022-08-04T07:54:34.121Z,3.10
2022-08-04T07:57:40.714Z,3.20
2022-08-04T08:00:30.422Z,3.53
2022-08-04T08:03:21.639Z,2.70
2022-08-04T08:06:31.725Z,2.87
2022-08-04T08:09:21.229Z,2.80
2022-08-04T08:12:35.189Z,2.93
2022-08-04T08:15:20.497Z,2.80
2022-08-04T08:18:08.999Z,3.15
2022-08-04T08:20:57.586Z,2.80
2022-08-04T08:23:46.094Z,3.22
2022-08-04T08:26:36.069Z,3.00
2022-08-04T08:29:25.972Z,2.85
2022-08-04T08:32:14.516Z,3.22
2022-08-04T08:35:03.041Z,3.28
2022-08-04T08:37:56.344Z,3.03
2022-08-04T08:40:59.627Z,2.70
2022-08-04T08:44:06.228Z,3.00
2022-08-04T08:47:09.470Z,2.83
2022-08-04T08:50:47.537Z,2.80
2022-08-04T08:54:14.605Z,2.55
2022-08-04T08:57:18.400Z,2.80
2022-08-04T09:00:14.106Z,2.88
2022-08-04T09:03:40.063Z,3.05
2022-08-04T09:06:55.364Z,3.50
2022-08-04T09:09:54.403Z,2.50
2022-08-04T09:12:51.529Z,2.42
2022-08-04T09:15:45.784Z,2.38
2022-08-04T09:18:38.970Z,2.20
2022-08-04T09:21:33.175Z,2.08
2022-08-04T09:24:35.381Z,2.28
2022-08-04T09:27:28.541Z,2.22
2022-08-04T09:30:20.247Z,2.35
2022-08-04T09:33:16.255Z,2.25
2022-08-04T09:36:09.694Z,1.90
2022-08-04T09:39:13.165Z,2.20
2022-08-04T09:42:16.284Z,2.20
2022-08-04T09:45:13.446Z,2.50
2022-08-04T09:48:11.208Z,2.10
2022-08-04T09:51:00.732Z,2.30
2022-08-04T09:53:58.757Z,2.47
2022-08-04T09:56:55.315Z,2.30
2022-08-04T09:59:49.242Z,2.40
2022-08-04T10:02:39.765Z,2.30
2022-08-04T10:05:39.349Z,2.28
2022-08-04T10:08:39.959Z,2.42
2022-08-04T10:11:55.448Z,2.20
2022-08-04T10:14:53.896Z,2.20
2022-08-04T10:18:10.841Z,2.30
2022-08-04T10:21:11.609Z,2.45
2022-08-04T10:24:15.547Z,2.40
2022-08-04T10:27:10.523Z,2.25
2022-08-04T10:30:03.776Z,2.00
2022-08-04T10:32:59.797Z,1.83
2022-08-04T10:35:51.615Z,2.70
2022-08-04T10:38:47.071Z,2.10
2022-08-04T10:41:39.429Z,2.15
2022-08-04T10:44:41.889Z,2.20
2022-08-04T10:47:36.240Z,2.53
2022-08-04T10:50:25.481Z,2.00
2022-08-04T10:53:18.407Z,1.90
2022-08-04T10:56:12.121Z,2.00
2022-08-04T10:59:04.240Z,2.28
2022-08-04T11:02:01.559Z,1.70
2022-08-04T11:04:57.731Z,2.17
2022-08-04T11:07:48.439Z,2.13
2022-08-04T11:10:41.361Z,2.00
2022-08-04T11:13:35.219Z,2.20
2022-08-04T11:16:27.454Z,2.25
2022-08-04T11:19:45.298Z,1.90
2022-08-04T11:22:38.076Z,2.30
2022-08-04T11:25:29.028Z,2.08
2022-08-04T11:28:34.230Z,2.30
2022-08-04T11:31:24.939Z,1.90
2022-08-04T11:34:22.302Z,2.20
2022-08-04T11:37:15.034Z,2.40
2022-08-04T11:40:10.628Z,2.45
2022-08-04T11:43:02.915Z,2.10
2022-08-04T11:45:55.780Z,2.00
2022-08-04T11:48:54.036Z,2.00
2022-08-04T11:51:44.105Z,1.98
2022-08-04T11:54:33.560Z,1.92
2022-08-04T11:57:22.805Z,1.90
2022-08-04T12:00:24.103Z,1.73
2022-08-04T12:03:32.529Z,1.95
2022-08-04T12:06:30.135Z,2.00
2022-08-04T12:09:28.491Z,1.90
2022-08-04T12:12:22.170Z,1.95
2022-08-04T12:15:27.914Z,2.08
2022-08-04T12:18:22.766Z,1.80
2022-08-04T12:21:16.908Z,1.80
2022-08-04T12:24:13.943Z,1.77
2022-08-04T12:27:11.729Z,1.85
2022-08-04T12:30:59.925Z,1.80
2022-08-04T12:33:17.864Z,1.77
2022-08-04T12:36:21.014Z,1.90
2022-08-04T12:39:14.070Z,1.65
2022-08-04T12:42:19.492Z,1.95
2022-08-04T12:45:10.262Z,1.65
2022-08-04T12:48:00.728Z,1.85
2022-08-04T12:50:49.965Z,1.63
2022-08-04T12:53:51.368Z,1.67
2022-08-04T12:56:40.725Z,1.73
2022-08-04T12:59:30.695Z,1.88
2022-08-04T13:02:25.216Z,1.60
2022-08-04T13:05:16.780Z,1.65
2022-08-04T13:08:06.181Z,1.70
2022-08-04T13:10:55.030Z,1.63
2022-08-04T13:13:43.574Z,1.75
2022-08-04T13:16:34.178Z,1.50
2022-08-04T13:19:22.706Z,1.90
2022-08-04T13:22:12.110Z,1.50
2022-08-04T13:26:41.623Z,1.73
2022-08-04T13:28:14.427Z,1.58
2022-08-04T13:31:06.418Z,1.88
2022-08-04T13:34:05.217Z,1.90
2022-08-04T13:36:56.202Z,1.55
2022-08-04T13:39:55.709Z,1.80
2022-08-04T13:42:48.218Z,1.45
2022-08-04T13:45:36.772Z,1.77
2022-08-04T13:48:32.433Z,1.70
2022-08-04T13:51:23.843Z,1.92
2022-08-04T13:54:42.420Z,1.80
2022-08-04T13:57:32.211Z,1.80
2022-08-04T14:00:29.900Z,1.80
2022-08-04T14:03:26.135Z,1.70
2022-08-04T14:06:17.153Z,1.70
2022-08-04T14:09:14.791Z,2.03
2022-08-04T14:12:38.992Z,1.73
2022-08-04T14:16:01.282Z,2.50
2022-08-04T14:19:00.443Z,1.88
2022-08-04T14:21:49.708Z,1.73
2022-08-04T14:24:39.594Z,1.80
2022-08-04T14:27:29.833Z,1.80
2022-08-04T14:30:26.680Z,2.00
2022-08-04T14:34:02.631Z,1.60
2022-08-04T14:36:24.107Z,1.70
2022-08-04T14:39:14.106Z,1.75
2022-08-04T14:42:04.013Z,1.70
2022-08-04T14:44:56.686Z,2.10
2022-08-04T14:47:52.820Z,1.80
2022-08-04T14:50:43.420Z,1.90
2022-08-04T14:53:32.056Z,1.80
2022-08-04T14:56:37.818Z,1.92
2022-08-04T14:59:42.007Z,1.80
2022-08-04T15:02:47.842Z,1.90
2022-08-04T15:06:02.651Z,1.80
2022-08-04T15:08:47.350Z,1.70
2022-08-04T15:11:40.178Z,1.98
2022-08-04T15:14:37.670Z,1.80
2022-08-04T15:17:29.926Z,1.60
2022-08-04T15:20:18.883Z,1.65
2022-08-04T15:23:10.788Z,1.92
2022-08-04T15:26:01.538Z,1.80
2022-08-04T15:28:52.829Z,1.63
2022-08-04T15:32:07.330Z,1.90
2022-08-04T15:34:53.128Z,1.77
2022-08-04T15:37:50.506Z,1.83
2022-08-04T15:40:46.724Z,1.90
2022-08-04T15:43:55.392Z,1.88
2022-08-04T15:47:13.391Z,1.90
2022-08-04T15:50:10.045Z,1.98
2022-08-04T15:53:10.422Z,1.92
2022-08-04T15:56:01.715Z,2.05
2022-08-04T15:58:52.828Z,1.92
2022-08-04T16:01:41.561Z,2.08
2022-08-04T16:04:52.248Z,2.17
2022-08-04T16:07:56.680Z,2.00
2022-08-04T16:10:49.879Z,2.05
2022-08-04T16:13:38.351Z,2.10
2022-08-04T16:16:28.538Z,2.10
2022-08-04T16:19:35.205Z,1.90
2022-08-04T16:22:37.861Z,2.30
2022-08-04T16:25:46.453Z,2.20
2022-08-04T16:28:40.404Z,2.10
2022-08-04T16:31:28.909Z,1.83
2022-08-04T16:34:48.457Z,2.05
2022-08-04T16:37:35.903Z,2.00
2022-08-04T16:40:38.557Z,1.70
2022-08-04T16:43:29.649Z,1.80
2022-08-04T16:46:41.236Z,2.00
2022-08-04T16:49:51.920Z,2.15
2022-08-04T16:52:45.185Z,2.22
2022-08-04T16:55:33.636Z,2.10
2022-08-04T16:58:32.928Z,1.80
2022-08-04T17:01:33.678Z,1.75
2022-08-04T17:04:29.967Z,1.95
2022-08-04T17:07:18.484Z,2.00
2022-08-04T17:10:09.279Z,2.00
2022-08-04T17:13:20.652Z,1.95
2022-08-04T17:16:13.125Z,1.90
2022-08-04T17:19:02.445Z,1.90
2022-08-04T17:21:50.889Z,2.40
2022-08-04T17:24:40.709Z,2.00
2022-08-04T17:28:19.192Z,1.83
2022-08-04T17:30:39.671Z,2.00
2022-08-04T17:33:54.299Z,1.88
2022-08-04T17:36:44.002Z,1.98
2022-08-04T17:39:34.980Z,1.90
2022-08-04T17:42:35.499Z,2.00
2022-08-04T17:45:50.675Z,1.90
2022-08-04T17:48:33.694Z,1.90
2022-08-04T17:52:05.606Z,2.13
2022-08-04T17:54:37.104Z,1.73
2022-08-04T17:57:28.104Z,2.00
2022-08-04T18:00:19.686Z,1.90
2022-08-04T18:03:08.508Z,1.92
2022-08-04T18:06:03.353Z,1.70
2022-08-04T18:08:58.779Z,1.83
2022-08-04T18:11:57.798Z,1.92
2022-08-04T18:14:49.134Z,1.92
2022-08-04T18:18:20.776Z,2.08
2022-08-04T18:20:49.967Z,2.22
2022-08-04T18:23:50.534Z,2.17
2022-08-04T18:26:40.059Z,1.90
2022-08-04T18:29:31.872Z,2.03
2022-08-04T18:32:23.855Z,1.80
2022-08-04T18:35:23.689Z,2.00
2022-08-04T18:38:32.122Z,2.00
2022-08-04T18:41:20.619Z,1.90
2022-08-04T18:44:09.169Z,2.00
2022-08-04T18:51:00.120Z,2.10
2022-08-04T18:53:20.517Z,1.90
2022-08-04T18:56:19.996Z,2.00
2022-08-04T18:59:17.708Z,2.13
2022-08-04T19:02:16.732Z,2.00
2022-08-04T19:05:06.539Z,2.27
2022-08-04T19:08:02.394Z,2.00
2022-08-04T19:11:01.577Z,2.10
2022-08-04T19:14:13.691Z,2.23
2022-08-04T19:17:02.424Z,1.93
2022-08-04T19:20:02.943Z,1.97
2022-08-04T19:24:27.077Z,2.17
2022-08-04T19:26:04.968Z,2.03
2022-08-04T19:28:56.868Z,2.07
2022-08-04T19:31:45.371Z,2.40
2022-08-04T19:34:35.070Z,2.10
2022-08-04T19:37:55.953Z,1.80
2022-08-04T19:40:32.775Z,1.63
2022-08-04T19:43:23.934Z,1.87
2022-08-04T19:46:12.609Z,1.90
2022-08-04T19:49:01.285Z,2.00
2022-08-04T19:51:51.803Z,1.80
2022-08-04T19:54:43.227Z,1.83
2022-08-04T19:57:41.323Z,2.10
2022-08-04T20:00:33.731Z,1.80
2022-08-04T20:03:23.004Z,1.90
2022-08-04T20:06:31.499Z,1.97
2022-08-04T20:09:25.859Z,1.70
2022-08-04T20:12:15.409Z,2.00
2022-08-04T20:15:04.447Z,1.90
2022-08-04T20:18:07.514Z,1.80
2022-08-04T20:21:02.825Z,1.70
2022-08-04T20:23:51.356Z,1.80
2022-08-04T20:26:39.894Z,2.00
2022-08-04T20:29:40.198Z,1.90
2022-08-04T20:32:29.703Z,1.80
2022-08-04T20:35:19.736Z,1.97
2022-08-04T20:38:08.257Z,2.50
2022-08-04T20:41:18.939Z,2.07
2022-08-04T20:44:10.779Z,2.17
2022-08-04T20:46:59.520Z,1.80
2022-08-04T20:49:50.197Z,2.17
2022-08-04T20:52:42.090Z,1.80
2022-08-04T20:55:30.624Z,1.97
2022-08-04T20:58:19.114Z,2.10
2022-08-04T21:01:15.861Z,1.80
2022-08-04T21:04:28.286Z,2.50
2022-08-04T21:07:17.768Z,1.80
2022-08-04T21:10:08.875Z,1.83
2022-08-04T21:12:57.376Z,2.10
2022-08-04T21:15:57.832Z,2.23
2022-08-04T21:18:47.408Z,1.80
2022-08-04T21:21:38.060Z,1.77
2022-08-04T21:24:27.123Z,2.00
2022-08-04T21:27:17.049Z,2.30
2022-08-04T21:30:08.876Z,2.10
2022-08-04T21:33:12.853Z,1.97
2022-08-04T21:36:03.163Z,1.90
2022-08-04T21:38:52.481Z,2.00
2022-08-04T21:42:10.213Z,1.97
2022-08-04T21:44:51.457Z,2.10
2022-08-04T21:47:46.687Z,1.90
2022-08-04T21:50:38.299Z,1.80
2022-08-04T21:53:30.281Z,1.90
2022-08-04T21:56:18.859Z,2.20
2022-08-04T21:59:15.312Z,2.10
2022-08-04T22:02:05.486Z,2.03
2022-08-04T22:04:56.510Z,2.17
2022-08-04T22:07:50.371Z,2.00
2022-08-04T22:10:40.161Z,1.90
2022-08-04T22:13:52.640Z,1.90
2022-08-04T22:16:41.429Z,1.93
2022-08-04T22:19:50.789Z,2.20
2022-08-04T22:22:41.040Z,2.10
2022-08-04T22:25:31.368Z,2.07
2022-08-04T22:28:19.916Z,2.00
2022-08-04T22:31:23.769Z,2.00
2022-08-04T22:34:12.975Z,2.07
2022-08-04T22:37:02.817Z,2.07
2022-08-04T22:40:01.074Z,2.17
2022-08-04T22:42:50.280Z,2.13
2022-08-04T22:45:45.169Z,2.20
2022-08-04T22:48:34.314Z,2.40
2022-08-04T22:51:23.066Z,2.20
2022-08-04T22:54:17.269Z,2.00
2022-08-04T22:57:06.222Z,2.10
2022-08-04T22:59:56.710Z,2.10
2022-08-04T23:02:49.554Z,2.10
2022-08-04T23:05:38.267Z,2.30
2022-08-04T23:08:26.798Z,2.23
2022-08-04T23:11:20.807Z,2.10
2022-08-04T23:14:09.267Z,2.27
2022-08-04T23:16:57.753Z,2.37
2022-08-04T23:19:57.624Z,2.10
2022-08-04T23:22:47.409Z,2.30
2022-08-04T23:26:08.338Z,2.27
2022-08-04T23:28:56.392Z,2.30
2022-08-04T23:31:59.034Z,2.10
2022-08-04T23:34:49.074Z,2.40
2022-08-04T23:37:37.627Z,2.30
2022-08-04T23:40:50.292Z,2.20
2022-08-04T23:43:55.153Z,2.37
2022-08-04T23:46:45.370Z,2.30
2022-08-04T23:49:44.559Z,2.50
2022-08-04T23:52:33.803Z,2.60
2022-08-04T23:55:23.125Z,2.83
2022-08-04T23:58:18.604Z,2.80
